sensor_id;sensor_type;location;lat;lon;timestamp;temperature;humidity
14378;DHT22;7272;53.668;9.578;2023-03-01T00:01:08;1.30;99.90
14378;DHT22;7272;53.668;9.578;2023-03-01T00:04:11;1.20;99.90
14378;DHT22;7272;53.668;9.578;2023-03-01T00:07:13;1.20;99.90
14378;DHT22;7272;53.668;9.578;2023-03-01T00:10:15;1.10;99.90
14378;DHT22;7272;53.668;9.578;2023-03-01T00:13:19;1.10;99.90
14378;DHT22;7272;53.668;9.578;2023-03-01T00:16:22;1.10;99.90
14378;DHT22;7272;53.668;9.578;2023-03-01T00:19:24;1.10;99.90
14378;DHT22;7272;53.668;9.578;2023-03-01T00:22:26;1.10;99.90
14378;DHT22;7272;53.668;9.578;2023-03-01T00:25:29;1.10;99.90
14378;DHT22;7272;53.668;9.578;2023-03-01T00:28:32;1.10;99.90
14378;DHT22;7272;53.668;9.578;2023-03-01T00:31:35;1.10;99.90
14378;DHT22;7272;53.668;9.578;2023-03-01T00:34:36;1.10;99.90
14378;DHT22;7272;53.668;9.578;2023-03-01T00:37:38;1.10;99.90
14378;DHT22;7272;53.668;9.578;2023-03-01T00:40:42;1.10;99.90
14378;DHT22;7272;53.668;9.578;2023-03-01T00:43:45;1.10;99.90
14378;DHT22;7272;53.668;9.578;2023-03-01T00:46:47;1.10;99.90
14378;DHT22;7272;53.668;9.578;2023-03-01T00:49:49;1.00;99.90
14378;DHT22;7272;53.668;9.578;2023-03-01T00:52:52;1.00;99.90
14378;DHT22;7272;53.668;9.578;2023-03-01T00:55:56;1.10;99.90
14378;DHT22;7272;53.668;9.578;2023-03-01T00:59:00;1.00;99.90
14378;DHT22;7272;53.668;9.578;2023-03-01T01:02:02;1.00;99.90
14378;DHT22;7272;53.668;9.578;2023-03-01T01:05:05;1.00;99.90
14378;DHT22;7272;53.668;9.578;2023-03-01T01:08:07;1.00;99.90
14378;DHT22;7272;53.668;9.578;2023-03-01T01:11:09;1.00;99.90
14378;DHT22;7272;53.668;9.578;2023-03-01T01:14:13;1.00;99.90
14378;DHT22;7272;53.668;9.578;2023-03-01T01:17:15;1.00;99.90
14378;DHT22;7272;53.668;9.578;2023-03-01T01:20:17;1.00;99.90
14378;DHT22;7272;53.668;9.578;2023-03-01T01:23:19;0.90;99.90
14378;DHT22;7272;53.668;9.578;2023-03-01T01:26:23;0.90;99.90
14378;DHT22;7272;53.668;9.578;2023-03-01T01:29:27;1.00;99.90
14378;DHT22;7272;53.668;9.578;2023-03-01T01:32:29;0.90;99.90
14378;DHT22;7272;53.668;9.578;2023-03-01T01:35:31;0.90;99.90
14378;DHT22;7272;53.668;9.578;2023-03-01T01:38:33;0.90;99.90
14378;DHT22;7272;53.668;9.578;2023-03-01T01:41:35;0.90;99.90
14378;DHT22;7272;53.668;9.578;2023-03-01T01:44:40;0.90;99.90
14378;DHT22;7272;53.668;9.578;2023-03-01T01:47:42;0.80;99.90
14378;DHT22;7272;53.668;9.578;2023-03-01T01:50:44;0.70;99.90
14378;DHT22;7272;53.668;9.578;2023-03-01T01:53:52;0.70;99.90
14378;DHT22;7272;53.668;9.578;2023-03-01T01:56:58;0.70;99.90
14378;DHT22;7272;53.668;9.578;2023-03-01T02:00:06;0.70;99.90
14378;DHT22;7272;53.668;9.578;2023-03-01T02:03:17;0.60;99.90
14378;DHT22;7272;53.668;9.578;2023-03-01T02:06:23;0.60;99.90
14378;DHT22;7272;53.668;9.578;2023-03-01T02:09:30;0.60;99.90
14378;DHT22;7272;53.668;9.578;2023-03-01T02:12:35;0.60;99.90
14378;DHT22;7272;53.668;9.578;2023-03-01T02:15:39;0.50;99.90
14378;DHT22;7272;53.668;9.578;2023-03-01T02:18:44;0.50;99.90
14378;DHT22;7272;53.668;9.578;2023-03-01T02:21:51;0.40;99.90
14378;DHT22;7272;53.668;9.578;2023-03-01T02:25:08;0.40;99.90
14378;DHT22;7272;53.668;9.578;2023-03-01T02:28:29;0.50;99.90
14378;DHT22;7272;53.668;9.578;2023-03-01T02:31:31;0.40;99.90
14378;DHT22;7272;53.668;9.578;2023-03-01T02:34:48;0.50;99.90
14378;DHT22;7272;53.668;9.578;2023-03-01T02:37:50;0.50;99.90
14378;DHT22;7272;53.668;9.578;2023-03-01T02:40:53;0.50;99.90
14378;DHT22;7272;53.668;9.578;2023-03-01T02:43:57;0.50;99.90
14378;DHT22;7272;53.668;9.578;2023-03-01T02:47:02;0.50;99.90
14378;DHT22;7272;53.668;9.578;2023-03-01T02:50:13;0.50;99.90
14378;DHT22;7272;53.668;9.578;2023-03-01T02:53:23;0.50;99.90
14378;DHT22;7272;53.668;9.578;2023-03-01T02:56:29;0.50;99.90
14378;DHT22;7272;53.668;9.578;2023-03-01T02:59:34;0.50;99.90
14378;DHT22;7272;53.668;9.578;2023-03-01T03:02:40;0.50;99.90
14378;DHT22;7272;53.668;9.578;2023-03-01T03:05:49;0.50;99.90
14378;DHT22;7272;53.668;9.578;2023-03-01T03:08:51;0.50;99.90
14378;DHT22;7272;53.668;9.578;2023-03-01T03:11:52;0.50;99.90
14378;DHT22;7272;53.668;9.578;2023-03-01T03:14:56;0.50;99.90
14378;DHT22;7272;53.668;9.578;2023-03-01T03:17:58;0.50;99.90
14378;DHT22;7272;53.668;9.578;2023-03-01T03:21:00;0.60;99.90
14378;DHT22;7272;53.668;9.578;2023-03-01T03:24:03;0.50;99.90
14378;DHT22;7272;53.668;9.578;2023-03-01T03:27:05;0.60;99.90
14378;DHT22;7272;53.668;9.578;2023-03-01T03:30:12;0.60;99.90
14378;DHT22;7272;53.668;9.578;2023-03-01T03:33:14;0.60;99.90
14378;DHT22;7272;53.668;9.578;2023-03-01T03:36:17;0.50;99.90
14378;DHT22;7272;53.668;9.578;2023-03-01T03:39:18;0.60;99.90
14378;DHT22;7272;53.668;9.578;2023-03-01T03:42:21;0.60;99.90
14378;DHT22;7272;53.668;9.578;2023-03-01T03:45:24;0.50;99.90
14378;DHT22;7272;53.668;9.578;2023-03-01T03:48:26;0.50;99.90
14378;DHT22;7272;53.668;9.578;2023-03-01T03:51:28;0.40;99.90
14378;DHT22;7272;53.668;9.578;2023-03-01T03:54:30;0.40;99.90
14378;DHT22;7272;53.668;9.578;2023-03-01T03:57:32;0.40;99.90
14378;DHT22;7272;53.668;9.578;2023-03-01T04:00:37;0.40;99.90
14378;DHT22;7272;53.668;9.578;2023-03-01T04:03:39;0.40;99.90
14378;DHT22;7272;53.668;9.578;2023-03-01T04:06:42;0.40;99.90
14378;DHT22;7272;53.668;9.578;2023-03-01T04:09:44;0.40;99.90
14378;DHT22;7272;53.668;9.578;2023-03-01T04:12:46;0.40;99.90
14378;DHT22;7272;53.668;9.578;2023-03-01T04:15:50;0.40;99.90
14378;DHT22;7272;53.668;9.578;2023-03-01T04:18:52;0.40;99.90
14378;DHT22;7272;53.668;9.578;2023-03-01T04:21:58;0.40;99.90
14378;DHT22;7272;53.668;9.578;2023-03-01T04:25:00;0.30;99.90
14378;DHT22;7272;53.668;9.578;2023-03-01T04:28:07;0.30;99.90
14378;DHT22;7272;53.668;9.578;2023-03-01T04:31:12;0.30;99.90
14378;DHT22;7272;53.668;9.578;2023-03-01T04:34:16;0.30;99.90
14378;DHT22;7272;53.668;9.578;2023-03-01T04:37:17;0.30;99.90
14378;DHT22;7272;53.668;9.578;2023-03-01T04:40:19;0.30;99.90
14378;DHT22;7272;53.668;9.578;2023-03-01T04:43:21;0.30;99.90
14378;DHT22;7272;53.668;9.578;2023-03-01T04:46:25;0.30;99.90
14378;DHT22;7272;53.668;9.578;2023-03-01T04:49:26;0.20;99.90
14378;DHT22;7272;53.668;9.578;2023-03-01T04:52:28;0.20;99.90
14378;DHT22;7272;53.668;9.578;2023-03-01T04:55:30;0.20;99.90
14378;DHT22;7272;53.668;9.578;2023-03-01T04:58:33;0.30;99.90
14378;DHT22;7272;53.668;9.578;2023-03-01T05:01:36;0.20;99.90
14378;DHT22;7272;53.668;9.578;2023-03-01T05:04:38;0.30;99.90
14378;DHT22;7272;53.668;9.578;2023-03-01T05:07:40;0.30;99.90
14378;DHT22;7272;53.668;9.578;2023-03-01T05:10:42;0.40;99.90
14378;DHT22;7272;53.668;9.578;2023-03-01T05:13:44;0.50;99.90
14378;DHT22;7272;53.668;9.578;2023-03-01T05:16:47;0.50;99.90
14378;DHT22;7272;53.668;9.578;2023-03-01T05:19:49;0.60;99.90
14378;DHT22;7272;53.668;9.578;2023-03-01T05:22:53;0.60;99.90
14378;DHT22;7272;53.668;9.578;2023-03-01T05:25:57;0.70;99.90
14378;DHT22;7272;53.668;9.578;2023-03-01T05:29:00;0.70;99.90
14378;DHT22;7272;53.668;9.578;2023-03-01T05:32:03;0.70;99.90
14378;DHT22;7272;53.668;9.578;2023-03-01T05:35:06;0.70;99.90
14378;DHT22;7272;53.668;9.578;2023-03-01T05:38:08;0.80;99.90
14378;DHT22;7272;53.668;9.578;2023-03-01T05:41:14;0.90;99.90
14378;DHT22;7272;53.668;9.578;2023-03-01T05:44:16;0.90;99.90
14378;DHT22;7272;53.668;9.578;2023-03-01T05:47:19;0.80;99.90
14378;DHT22;7272;53.668;9.578;2023-03-01T05:50:23;0.70;99.90
14378;DHT22;7272;53.668;9.578;2023-03-01T05:53:25;0.60;99.90
14378;DHT22;7272;53.668;9.578;2023-03-01T05:56:27;0.60;99.90
14378;DHT22;7272;53.668;9.578;2023-03-01T05:59:29;0.60;99.90
14378;DHT22;7272;53.668;9.578;2023-03-01T06:02:32;0.70;99.90
14378;DHT22;7272;53.668;9.578;2023-03-01T06:05:34;0.80;99.90
14378;DHT22;7272;53.668;9.578;2023-03-01T06:08:36;0.90;99.90
14378;DHT22;7272;53.668;9.578;2023-03-01T06:11:38;1.00;99.90
14378;DHT22;7272;53.668;9.578;2023-03-01T06:14:40;1.00;99.90
14378;DHT22;7272;53.668;9.578;2023-03-01T06:17:45;1.10;99.90
14378;DHT22;7272;53.668;9.578;2023-03-01T06:20:52;1.20;99.90
14378;DHT22;7272;53.668;9.578;2023-03-01T06:23:54;1.20;99.90
14378;DHT22;7272;53.668;9.578;2023-03-01T06:26:56;1.10;99.90
14378;DHT22;7272;53.668;9.578;2023-03-01T06:29:58;0.90;99.90
14378;DHT22;7272;53.668;9.578;2023-03-01T06:33:01;0.80;99.90
14378;DHT22;7272;53.668;9.578;2023-03-01T06:36:05;0.70;99.90
14378;DHT22;7272;53.668;9.578;2023-03-01T06:39:07;0.80;99.90
14378;DHT22;7272;53.668;9.578;2023-03-01T06:42:09;0.80;99.90
14378;DHT22;7272;53.668;9.578;2023-03-01T06:45:11;0.90;99.90
14378;DHT22;7272;53.668;9.578;2023-03-01T06:48:15;0.80;99.90
14378;DHT22;7272;53.668;9.578;2023-03-01T06:51:17;0.60;99.90
14378;DHT22;7272;53.668;9.578;2023-03-01T06:54:19;0.50;99.90
14378;DHT22;7272;53.668;9.578;2023-03-01T06:57:22;0.50;99.90
14378;DHT22;7272;53.668;9.578;2023-03-01T07:00:24;0.40;99.90
14378;DHT22;7272;53.668;9.578;2023-03-01T07:03:28;0.40;99.90
14378;DHT22;7272;53.668;9.578;2023-03-01T07:06:30;0.50;99.90
14378;DHT22;7272;53.668;9.578;2023-03-01T07:09:32;0.60;99.90
14378;DHT22;7272;53.668;9.578;2023-03-01T07:12:34;0.60;99.90
14378;DHT22;7272;53.668;9.578;2023-03-01T07:15:36;0.70;99.90
14378;DHT22;7272;53.668;9.578;2023-03-01T07:18:39;0.80;99.90
14378;DHT22;7272;53.668;9.578;2023-03-01T07:21:41;0.90;99.90
14378;DHT22;7272;53.668;9.578;2023-03-01T07:24:43;1.10;99.90
14378;DHT22;7272;53.668;9.578;2023-03-01T07:27:49;1.30;99.90
14378;DHT22;7272;53.668;9.578;2023-03-01T07:30:51;1.30;99.90
14378;DHT22;7272;53.668;9.578;2023-03-01T07:33:55;1.20;99.90
14378;DHT22;7272;53.668;9.578;2023-03-01T07:36:57;1.30;99.90
14378;DHT22;7272;53.668;9.578;2023-03-01T07:39:59;1.40;99.90
14378;DHT22;7272;53.668;9.578;2023-03-01T07:43:01;1.30;99.90
14378;DHT22;7272;53.668;9.578;2023-03-01T07:46:04;1.20;99.90
14378;DHT22;7272;53.668;9.578;2023-03-01T07:49:08;1.30;99.90
14378;DHT22;7272;53.668;9.578;2023-03-01T07:52:10;1.40;99.90
14378;DHT22;7272;53.668;9.578;2023-03-01T07:55:12;1.50;99.90
14378;DHT22;7272;53.668;9.578;2023-03-01T07:58:14;1.60;99.90
14378;DHT22;7272;53.668;9.578;2023-03-01T08:01:18;1.70;99.90
14378;DHT22;7272;53.668;9.578;2023-03-01T08:04:22;1.70;99.90
14378;DHT22;7272;53.668;9.578;2023-03-01T08:07:25;1.60;99.90
14378;DHT22;7272;53.668;9.578;2023-03-01T08:10:27;1.60;99.90
14378;DHT22;7272;53.668;9.578;2023-03-01T08:13:29;1.60;99.90
14378;DHT22;7272;53.668;9.578;2023-03-01T08:16:32;1.50;99.90
14378;DHT22;7272;53.668;9.578;2023-03-01T08:19:37;1.70;99.90
14378;DHT22;7272;53.668;9.578;2023-03-01T08:22:39;1.70;99.90
14378;DHT22;7272;53.668;9.578;2023-03-01T08:25:41;1.70;99.90
14378;DHT22;7272;53.668;9.578;2023-03-01T08:28:43;1.90;99.90
14378;DHT22;7272;53.668;9.578;2023-03-01T08:31:45;2.00;99.90
14378;DHT22;7272;53.668;9.578;2023-03-01T08:34:48;2.20;99.90
14378;DHT22;7272;53.668;9.578;2023-03-01T08:37:50;2.50;99.90
14378;DHT22;7272;53.668;9.578;2023-03-01T08:40:52;2.50;99.90
14378;DHT22;7272;53.668;9.578;2023-03-01T08:43:54;2.60;99.90
14378;DHT22;7272;53.668;9.578;2023-03-01T08:46:59;2.70;99.90
14378;DHT22;7272;53.668;9.578;2023-03-01T08:50:05;2.90;99.90
14378;DHT22;7272;53.668;9.578;2023-03-01T08:53:07;2.90;99.90
14378;DHT22;7272;53.668;9.578;2023-03-01T08:56:10;2.90;99.90
14378;DHT22;7272;53.668;9.578;2023-03-01T08:59:13;2.90;99.90
14378;DHT22;7272;53.668;9.578;2023-03-01T09:02:17;2.90;99.90
14378;DHT22;7272;53.668;9.578;2023-03-01T09:05:20;3.00;99.90
14378;DHT22;7272;53.668;9.578;2023-03-01T09:08:22;3.00;99.90
14378;DHT22;7272;53.668;9.578;2023-03-01T09:11:24;3.10;99.90
14378;DHT22;7272;53.668;9.578;2023-03-01T09:14:26;3.30;99.90
14378;DHT22;7272;53.668;9.578;2023-03-01T09:17:28;3.50;99.90
14378;DHT22;7272;53.668;9.578;2023-03-01T09:20:32;3.60;99.90
14378;DHT22;7272;53.668;9.578;2023-03-01T09:23:34;3.50;99.90
14378;DHT22;7272;53.668;9.578;2023-03-01T09:26:39;3.30;99.90
14378;DHT22;7272;53.668;9.578;2023-03-01T09:29:41;3.40;99.90
14378;DHT22;7272;53.668;9.578;2023-03-01T09:32:43;3.40;99.90
14378;DHT22;7272;53.668;9.578;2023-03-01T09:35:46;3.40;99.90
14378;DHT22;7272;53.668;9.578;2023-03-01T09:38:49;3.30;99.90
14378;DHT22;7272;53.668;9.578;2023-03-01T09:41:59;3.50;99.90
14378;DHT22;7272;53.668;9.578;2023-03-01T09:45:05;3.50;99.90
14378;DHT22;7272;53.668;9.578;2023-03-01T09:48:12;3.40;99.90
14378;DHT22;7272;53.668;9.578;2023-03-01T09:51:24;3.40;99.90
14378;DHT22;7272;53.668;9.578;2023-03-01T09:54:28;3.50;99.90
14378;DHT22;7272;53.668;9.578;2023-03-01T09:57:35;3.60;99.90
14378;DHT22;7272;53.668;9.578;2023-03-01T10:00:42;3.60;99.90
14378;DHT22;7272;53.668;9.578;2023-03-01T10:03:54;3.60;99.90
14378;DHT22;7272;53.668;9.578;2023-03-01T10:07:14;3.90;99.90
14378;DHT22;7272;53.668;9.578;2023-03-01T10:10:25;4.00;99.90
14378;DHT22;7272;53.668;9.578;2023-03-01T10:13:36;4.20;99.90
14378;DHT22;7272;53.668;9.578;2023-03-01T10:16:43;4.20;99.90
14378;DHT22;7272;53.668;9.578;2023-03-01T10:19:48;4.30;99.90
14378;DHT22;7272;53.668;9.578;2023-03-01T10:22:51;4.40;99.90
14378;DHT22;7272;53.668;9.578;2023-03-01T10:26:03;4.40;99.90
14378;DHT22;7272;53.668;9.578;2023-03-01T10:29:08;4.40;99.90
14378;DHT22;7272;53.668;9.578;2023-03-01T10:32:11;4.50;99.90
14378;DHT22;7272;53.668;9.578;2023-03-01T10:35:18;4.50;99.90
14378;DHT22;7272;53.668;9.578;2023-03-01T10:38:22;4.50;99.90
14378;DHT22;7272;53.668;9.578;2023-03-01T10:41:25;4.50;99.90
14378;DHT22;7272;53.668;9.578;2023-03-01T10:44:40;4.50;99.90
14378;DHT22;7272;53.668;9.578;2023-03-01T10:47:42;4.50;99.90
14378;DHT22;7272;53.668;9.578;2023-03-01T10:50:45;4.40;99.90
14378;DHT22;7272;53.668;9.578;2023-03-01T10:53:49;4.50;99.90
14378;DHT22;7272;53.668;9.578;2023-03-01T10:56:54;4.40;99.90
14378;DHT22;7272;53.668;9.578;2023-03-01T11:03:35;4.40;99.90
14378;DHT22;7272;53.668;9.578;2023-03-01T11:06:38;4.40;99.90
14378;DHT22;7272;53.668;9.578;2023-03-01T11:09:42;4.40;99.90
14378;DHT22;7272;53.668;9.578;2023-03-01T11:12:44;4.40;99.90
14378;DHT22;7272;53.668;9.578;2023-03-01T11:15:58;4.40;99.90
14378;DHT22;7272;53.668;9.578;2023-03-01T11:19:15;4.50;99.90
14378;DHT22;7272;53.668;9.578;2023-03-01T11:22:19;4.60;99.90
14378;DHT22;7272;53.668;9.578;2023-03-01T11:25:27;4.60;99.90
14378;DHT22;7272;53.668;9.578;2023-03-01T11:28:31;4.70;99.90
14378;DHT22;7272;53.668;9.578;2023-03-01T11:31:34;4.90;99.90
14378;DHT22;7272;53.668;9.578;2023-03-01T11:34:42;5.10;99.90
14378;DHT22;7272;53.668;9.578;2023-03-01T11:37:55;5.20;99.90
14378;DHT22;7272;53.668;9.578;2023-03-01T11:41:05;5.20;99.90
14378;DHT22;7272;53.668;9.578;2023-03-01T11:44:16;5.20;99.90
14378;DHT22;7272;53.668;9.578;2023-03-01T11:47:31;5.30;99.90
14378;DHT22;7272;53.668;9.578;2023-03-01T11:50:40;5.40;99.90
14378;DHT22;7272;53.668;9.578;2023-03-01T11:57:28;5.60;99.90
14378;DHT22;7272;53.668;9.578;2023-03-01T12:00:51;5.60;99.90
14378;DHT22;7272;53.668;9.578;2023-03-01T12:07:53;5.60;99.90
14378;DHT22;7272;53.668;9.578;2023-03-01T12:11:02;5.20;99.90
14378;DHT22;7272;53.668;9.578;2023-03-01T12:18:18;5.30;99.90
14378;DHT22;7272;53.668;9.578;2023-03-01T12:21:55;5.20;99.90
14378;DHT22;7272;53.668;9.578;2023-03-01T12:25:25;5.10;99.90
14378;DHT22;7272;53.668;9.578;2023-03-01T12:28:55;5.40;99.90
14378;DHT22;7272;53.668;9.578;2023-03-01T12:32:15;5.70;99.90
14378;DHT22;7272;53.668;9.578;2023-03-01T12:36:02;6.00;99.90
14378;DHT22;7272;53.668;9.578;2023-03-01T12:39:42;5.90;99.90
14378;DHT22;7272;53.668;9.578;2023-03-01T12:42:58;5.80;99.90
14378;DHT22;7272;53.668;9.578;2023-03-01T12:46:30;5.90;99.90
14378;DHT22;7272;53.668;9.578;2023-03-01T12:49:46;6.00;99.90
14378;DHT22;7272;53.668;9.578;2023-03-01T12:52:58;6.00;99.90
14378;DHT22;7272;53.668;9.578;2023-03-01T12:56:02;6.20;99.90
14378;DHT22;7272;53.668;9.578;2023-03-01T13:03:19;5.90;99.90
14378;DHT22;7272;53.668;9.578;2023-03-01T13:10:16;5.90;99.90
14378;DHT22;7272;53.668;9.578;2023-03-01T13:13:21;5.80;99.90
14378;DHT22;7272;53.668;9.578;2023-03-01T13:16:40;5.80;99.90
14378;DHT22;7272;53.668;9.578;2023-03-01T13:19:56;5.90;99.90
14378;DHT22;7272;53.668;9.578;2023-03-01T13:23:04;5.90;99.90
14378;DHT22;7272;53.668;9.578;2023-03-01T13:26:13;5.70;99.90
14378;DHT22;7272;53.668;9.578;2023-03-01T13:29:26;5.70;99.90
14378;DHT22;7272;53.668;9.578;2023-03-01T13:32:29;5.70;99.90
14378;DHT22;7272;53.668;9.578;2023-03-01T13:35:42;5.80;99.90
14378;DHT22;7272;53.668;9.578;2023-03-01T13:38:47;5.90;99.90
14378;DHT22;7272;53.668;9.578;2023-03-01T13:41:52;6.00;99.90
14378;DHT22;7272;53.668;9.578;2023-03-01T13:44:54;5.90;99.90
14378;DHT22;7272;53.668;9.578;2023-03-01T13:47:58;5.80;99.90
14378;DHT22;7272;53.668;9.578;2023-03-01T13:51:03;5.70;99.90
14378;DHT22;7272;53.668;9.578;2023-03-01T13:54:11;5.60;99.90
14378;DHT22;7272;53.668;9.578;2023-03-01T13:57:21;5.80;99.90
14378;DHT22;7272;53.668;9.578;2023-03-01T14:00:33;5.80;99.90
14378;DHT22;7272;53.668;9.578;2023-03-01T14:03:41;6.00;99.90
14378;DHT22;7272;53.668;9.578;2023-03-01T14:06:44;6.00;99.90
14378;DHT22;7272;53.668;9.578;2023-03-01T14:09:48;6.00;99.90
14378;DHT22;7272;53.668;9.578;2023-03-01T14:12:57;6.10;99.90
14378;DHT22;7272;53.668;9.578;2023-03-01T14:16:19;6.00;99.90
14378;DHT22;7272;53.668;9.578;2023-03-01T14:19:26;6.00;99.90
14378;DHT22;7272;53.668;9.578;2023-03-01T14:22:30;6.10;99.90
14378;DHT22;7272;53.668;9.578;2023-03-01T14:25:35;5.70;99.90
14378;DHT22;7272;53.668;9.578;2023-03-01T14:28:39;5.50;99.90
14378;DHT22;7272;53.668;9.578;2023-03-01T14:31:44;5.50;99.90
14378;DHT22;7272;53.668;9.578;2023-03-01T14:34:48;5.60;99.90
14378;DHT22;7272;53.668;9.578;2023-03-01T14:37:51;5.60;99.90
14378;DHT22;7272;53.668;9.578;2023-03-01T14:40:56;5.70;99.90
14378;DHT22;7272;53.668;9.578;2023-03-01T14:44:02;5.90;99.90
14378;DHT22;7272;53.668;9.578;2023-03-01T14:47:05;5.90;99.90
14378;DHT22;7272;53.668;9.578;2023-03-01T14:50:09;5.70;99.90
14378;DHT22;7272;53.668;9.578;2023-03-01T14:53:16;5.80;99.90
14378;DHT22;7272;53.668;9.578;2023-03-01T14:56:20;5.90;99.90
14378;DHT22;7272;53.668;9.578;2023-03-01T14:59:23;6.00;99.90
14378;DHT22;7272;53.668;9.578;2023-03-01T15:02:26;6.00;99.90
14378;DHT22;7272;53.668;9.578;2023-03-01T15:05:32;5.80;99.90
14378;DHT22;7272;53.668;9.578;2023-03-01T15:08:35;5.90;99.90
14378;DHT22;7272;53.668;9.578;2023-03-01T15:11:38;6.00;99.90
14378;DHT22;7272;53.668;9.578;2023-03-01T15:14:45;6.00;99.90
14378;DHT22;7272;53.668;9.578;2023-03-01T15:17:52;6.10;99.90
14378;DHT22;7272;53.668;9.578;2023-03-01T15:21:06;5.90;99.90
14378;DHT22;7272;53.668;9.578;2023-03-01T15:24:16;5.90;99.90
14378;DHT22;7272;53.668;9.578;2023-03-01T15:27:22;5.80;99.90
14378;DHT22;7272;53.668;9.578;2023-03-01T15:30:30;5.80;99.90
14378;DHT22;7272;53.668;9.578;2023-03-01T15:33:37;5.80;99.90
14378;DHT22;7272;53.668;9.578;2023-03-01T15:36:43;5.70;99.90
14378;DHT22;7272;53.668;9.578;2023-03-01T15:39:53;5.60;99.90
14378;DHT22;7272;53.668;9.578;2023-03-01T15:42:55;5.50;99.90
14378;DHT22;7272;53.668;9.578;2023-03-01T15:45:58;5.50;99.90
14378;DHT22;7272;53.668;9.578;2023-03-01T15:49:03;5.40;99.90
14378;DHT22;7272;53.668;9.578;2023-03-01T15:52:11;5.40;99.90
14378;DHT22;7272;53.668;9.578;2023-03-01T15:55:17;5.40;99.90
14378;DHT22;7272;53.668;9.578;2023-03-01T15:58:22;5.40;99.90
14378;DHT22;7272;53.668;9.578;2023-03-01T16:01:25;5.30;99.90
14378;DHT22;7272;53.668;9.578;2023-03-01T16:04:27;5.30;99.90
14378;DHT22;7272;53.668;9.578;2023-03-01T16:07:29;5.20;99.90
14378;DHT22;7272;53.668;9.578;2023-03-01T16:10:32;5.20;99.90
14378;DHT22;7272;53.668;9.578;2023-03-01T16:13:34;5.10;99.90
14378;DHT22;7272;53.668;9.578;2023-03-01T16:16:37;5.00;99.90
14378;DHT22;7272;53.668;9.578;2023-03-01T16:19:39;5.00;99.90
14378;DHT22;7272;53.668;9.578;2023-03-01T16:22:42;4.90;99.90
14378;DHT22;7272;53.668;9.578;2023-03-01T16:25:44;4.90;99.90
14378;DHT22;7272;53.668;9.578;2023-03-01T16:28:46;4.90;99.90
14378;DHT22;7272;53.668;9.578;2023-03-01T16:31:49;4.90;99.90
14378;DHT22;7272;53.668;9.578;2023-03-01T16:34:51;4.80;99.90
14378;DHT22;7272;53.668;9.578;2023-03-01T16:37:53;4.70;99.90
14378;DHT22;7272;53.668;9.578;2023-03-01T16:40:55;4.70;99.90
14378;DHT22;7272;53.668;9.578;2023-03-01T16:43:57;4.70;99.90
14378;DHT22;7272;53.668;9.578;2023-03-01T16:47:00;4.60;99.90
14378;DHT22;7272;53.668;9.578;2023-03-01T16:50:02;4.40;99.90
14378;DHT22;7272;53.668;9.578;2023-03-01T16:53:04;4.20;99.90
14378;DHT22;7272;53.668;9.578;2023-03-01T16:56:08;4.00;99.90
14378;DHT22;7272;53.668;9.578;2023-03-01T16:59:12;3.90;99.90
14378;DHT22;7272;53.668;9.578;2023-03-01T17:02:15;3.80;99.90
14378;DHT22;7272;53.668;9.578;2023-03-01T17:05:19;3.70;99.90
14378;DHT22;7272;53.668;9.578;2023-03-01T17:08:24;3.70;99.90
14378;DHT22;7272;53.668;9.578;2023-03-01T17:11:27;3.60;99.90
14378;DHT22;7272;53.668;9.578;2023-03-01T17:14:29;3.60;99.90
14378;DHT22;7272;53.668;9.578;2023-03-01T17:17:32;3.60;99.90
14378;DHT22;7272;53.668;9.578;2023-03-01T17:20:35;3.60;99.90
14378;DHT22;7272;53.668;9.578;2023-03-01T17:23:39;3.50;99.90
14378;DHT22;7272;53.668;9.578;2023-03-01T17:26:41;3.50;99.90
14378;DHT22;7272;53.668;9.578;2023-03-01T17:29:43;3.50;99.90
14378;DHT22;7272;53.668;9.578;2023-03-01T17:32:46;3.50;99.90
14378;DHT22;7272;53.668;9.578;2023-03-01T17:35:49;3.50;99.90
14378;DHT22;7272;53.668;9.578;2023-03-01T17:38:51;3.40;99.90
14378;DHT22;7272;53.668;9.578;2023-03-01T17:41:54;3.40;99.90
14378;DHT22;7272;53.668;9.578;2023-03-01T17:44:56;3.20;99.90
14378;DHT22;7272;53.668;9.578;2023-03-01T17:47:59;3.10;99.90
14378;DHT22;7272;53.668;9.578;2023-03-01T17:51:05;3.10;99.90
14378;DHT22;7272;53.668;9.578;2023-03-01T17:54:07;3.00;99.90
14378;DHT22;7272;53.668;9.578;2023-03-01T17:57:09;3.00;99.90
14378;DHT22;7272;53.668;9.578;2023-03-01T18:00:14;3.00;99.90
14378;DHT22;7272;53.668;9.578;2023-03-01T18:03:18;3.00;99.90
14378;DHT22;7272;53.668;9.578;2023-03-01T18:06:23;2.90;99.90
14378;DHT22;7272;53.668;9.578;2023-03-01T18:09:26;2.90;99.90
14378;DHT22;7272;53.668;9.578;2023-03-01T18:12:28;2.80;99.90
14378;DHT22;7272;53.668;9.578;2023-03-01T18:15:30;2.80;99.90
14378;DHT22;7272;53.668;9.578;2023-03-01T18:18:34;2.70;99.90
14378;DHT22;7272;53.668;9.578;2023-03-01T18:21:36;2.70;99.90
14378;DHT22;7272;53.668;9.578;2023-03-01T18:24:38;2.60;99.90
14378;DHT22;7272;53.668;9.578;2023-03-01T18:27:40;2.60;99.90
14378;DHT22;7272;53.668;9.578;2023-03-01T18:30:42;2.50;99.90
14378;DHT22;7272;53.668;9.578;2023-03-01T18:33:46;2.50;99.90
14378;DHT22;7272;53.668;9.578;2023-03-01T18:36:48;2.40;99.90
14378;DHT22;7272;53.668;9.578;2023-03-01T18:39:51;2.40;99.90
14378;DHT22;7272;53.668;9.578;2023-03-01T18:42:54;2.30;99.90
14378;DHT22;7272;53.668;9.578;2023-03-01T18:45:56;2.30;99.90
14378;DHT22;7272;53.668;9.578;2023-03-01T18:48:59;2.20;99.90
14378;DHT22;7272;53.668;9.578;2023-03-01T18:52:04;2.20;99.90
14378;DHT22;7272;53.668;9.578;2023-03-01T18:55:07;2.20;99.90
14378;DHT22;7272;53.668;9.578;2023-03-01T18:58:09;2.20;99.90
14378;DHT22;7272;53.668;9.578;2023-03-01T19:01:13;2.10;99.90
14378;DHT22;7272;53.668;9.578;2023-03-01T19:04:16;2.10;99.90
14378;DHT22;7272;53.668;9.578;2023-03-01T19:07:21;2.00;99.90
14378;DHT22;7272;53.668;9.578;2023-03-01T19:10:23;2.00;99.90
14378;DHT22;7272;53.668;9.578;2023-03-01T19:13:25;1.90;99.90
14378;DHT22;7272;53.668;9.578;2023-03-01T19:16:30;1.80;99.90
14378;DHT22;7272;53.668;9.578;2023-03-01T19:19:33;1.70;99.90
14378;DHT22;7272;53.668;9.578;2023-03-01T19:22:35;1.80;99.90
14378;DHT22;7272;53.668;9.578;2023-03-01T19:25:37;1.80;99.90
14378;DHT22;7272;53.668;9.578;2023-03-01T19:28:40;1.90;99.90
14378;DHT22;7272;53.668;9.578;2023-03-01T19:31:43;2.00;99.90
14378;DHT22;7272;53.668;9.578;2023-03-01T19:34:46;2.10;99.90
14378;DHT22;7272;53.668;9.578;2023-03-01T19:37:48;2.20;99.90
14378;DHT22;7272;53.668;9.578;2023-03-01T19:40:51;2.30;99.90
14378;DHT22;7272;53.668;9.578;2023-03-01T19:43:53;2.40;99.90
14378;DHT22;7272;53.668;9.578;2023-03-01T19:46:56;2.50;99.90
14378;DHT22;7272;53.668;9.578;2023-03-01T19:49:59;2.60;99.90
14378;DHT22;7272;53.668;9.578;2023-03-01T19:53:01;2.60;99.90
14378;DHT22;7272;53.668;9.578;2023-03-01T19:56:03;2.60;99.90
14378;DHT22;7272;53.668;9.578;2023-03-01T19:59:05;2.70;99.90
14378;DHT22;7272;53.668;9.578;2023-03-01T20:02:08;2.70;99.90
14378;DHT22;7272;53.668;9.578;2023-03-01T20:05:13;2.80;99.90
14378;DHT22;7272;53.668;9.578;2023-03-01T20:08:15;2.80;99.90
14378;DHT22;7272;53.668;9.578;2023-03-01T20:11:18;2.80;99.90
14378;DHT22;7272;53.668;9.578;2023-03-01T20:14:20;2.70;99.90
14378;DHT22;7272;53.668;9.578;2023-03-01T20:17:22;2.70;99.90
14378;DHT22;7272;53.668;9.578;2023-03-01T20:20:25;2.60;99.90
14378;DHT22;7272;53.668;9.578;2023-03-01T20:23:28;2.60;99.90
14378;DHT22;7272;53.668;9.578;2023-03-01T20:26:29;2.50;99.90
14378;DHT22;7272;53.668;9.578;2023-03-01T20:29:32;2.50;99.90